sensor_id;sensor_type;location;lat;lon;timestamp;temperature;humidity
58517;DHT22;44308;50.810;0.284;2023-06-04T00:01:43;12.30;99.90
58517;DHT22;44308;50.810;0.284;2023-06-04T00:04:11;12.20;99.90
58517;DHT22;44308;50.810;0.284;2023-06-04T00:06:36;12.30;99.90
58517;DHT22;44308;50.810;0.284;2023-06-04T00:09:02;12.20;99.90
58517;DHT22;44308;50.810;0.284;2023-06-04T00:11:28;12.30;99.90
58517;DHT22;44308;50.810;0.284;2023-06-04T00:13:53;12.20;99.90
58517;DHT22;44308;50.810;0.284;2023-06-04T00:16:19;12.20;99.90
58517;DHT22;44308;50.810;0.284;2023-06-04T00:18:45;12.20;99.90
58517;DHT22;44308;50.810;0.284;2023-06-04T00:21:11;12.20;99.90
58517;DHT22;44308;50.810;0.284;2023-06-04T00:23:36;12.20;99.90
58517;DHT22;44308;50.810;0.284;2023-06-04T00:26:03;12.20;99.90
58517;DHT22;44308;50.810;0.284;2023-06-04T00:28:28;12.20;99.90
58517;DHT22;44308;50.810;0.284;2023-06-04T00:30:55;12.20;99.90
58517;DHT22;44308;50.810;0.284;2023-06-04T00:33:20;12.10;99.90
58517;DHT22;44308;50.810;0.284;2023-06-04T00:35:46;12.10;99.90
58517;DHT22;44308;50.810;0.284;2023-06-04T00:38:12;12.10;99.90
58517;DHT22;44308;50.810;0.284;2023-06-04T00:40:37;12.10;99.90
58517;DHT22;44308;50.810;0.284;2023-06-04T00:43:03;12.00;99.90
58517;DHT22;44308;50.810;0.284;2023-06-04T00:45:28;12.00;99.90
58517;DHT22;44308;50.810;0.284;2023-06-04T00:47:56;12.00;99.90
58517;DHT22;44308;50.810;0.284;2023-06-04T00:50:23;12.00;99.90
58517;DHT22;44308;50.810;0.284;2023-06-04T00:52:50;11.90;99.90
58517;DHT22;44308;50.810;0.284;2023-06-04T00:55:17;11.90;99.90
58517;DHT22;44308;50.810;0.284;2023-06-04T00:57:44;11.90;99.90
58517;DHT22;44308;50.810;0.284;2023-06-04T01:00:10;11.90;99.90
58517;DHT22;44308;50.810;0.284;2023-06-04T01:02:38;11.90;99.90
58517;DHT22;44308;50.810;0.284;2023-06-04T01:07:38;11.70;99.90
58517;DHT22;44308;50.810;0.284;2023-06-04T01:10:06;11.80;99.90
58517;DHT22;44308;50.810;0.284;2023-06-04T01:12:33;11.70;99.90
58517;DHT22;44308;50.810;0.284;2023-06-04T01:14:59;11.70;99.90
58517;DHT22;44308;50.810;0.284;2023-06-04T01:17:46;11.70;99.90
58517;DHT22;44308;50.810;0.284;2023-06-04T01:20:47;11.70;99.90
58517;DHT22;44308;50.810;0.284;2023-06-04T01:23:32;11.70;99.90
58517;DHT22;44308;50.810;0.284;2023-06-04T01:26:03;11.70;99.90
58517;DHT22;44308;50.810;0.284;2023-06-04T01:28:31;11.60;99.90
58517;DHT22;44308;50.810;0.284;2023-06-04T01:30:58;11.60;99.90
58517;DHT22;44308;50.810;0.284;2023-06-04T01:33:25;11.60;99.90
58517;DHT22;44308;50.810;0.284;2023-06-04T01:35:51;11.60;99.90
58517;DHT22;44308;50.810;0.284;2023-06-04T01:38:17;11.70;99.90
58517;DHT22;44308;50.810;0.284;2023-06-04T01:40:44;11.70;99.90
58517;DHT22;44308;50.810;0.284;2023-06-04T01:43:10;11.70;99.90
58517;DHT22;44308;50.810;0.284;2023-06-04T01:45:36;11.70;99.90
58517;DHT22;44308;50.810;0.284;2023-06-04T01:48:03;11.70;99.90
58517;DHT22;44308;50.810;0.284;2023-06-04T01:50:29;11.70;99.90
58517;DHT22;44308;50.810;0.284;2023-06-04T01:52:58;11.70;99.90
58517;DHT22;44308;50.810;0.284;2023-06-04T01:55:24;11.70;99.90
58517;DHT22;44308;50.810;0.284;2023-06-04T01:57:51;11.70;99.90
58517;DHT22;44308;50.810;0.284;2023-06-04T02:00:17;11.70;99.90
58517;DHT22;44308;50.810;0.284;2023-06-04T02:02:45;11.70;99.90
58517;DHT22;44308;50.810;0.284;2023-06-04T02:05:11;11.70;99.90
58517;DHT22;44308;50.810;0.284;2023-06-04T02:07:41;11.70;99.90
58517;DHT22;44308;50.810;0.284;2023-06-04T02:10:19;11.70;99.90
58517;DHT22;44308;50.810;0.284;2023-06-04T02:13:01;11.70;99.90
58517;DHT22;44308;50.810;0.284;2023-06-04T02:15:31;11.70;99.90
58517;DHT22;44308;50.810;0.284;2023-06-04T02:17:58;11.70;99.90
58517;DHT22;44308;50.810;0.284;2023-06-04T02:20:26;11.60;99.90
58517;DHT22;44308;50.810;0.284;2023-06-04T02:22:56;11.60;99.90
58517;DHT22;44308;50.810;0.284;2023-06-04T02:25:22;11.60;99.90
58517;DHT22;44308;50.810;0.284;2023-06-04T02:27:48;11.60;99.90
58517;DHT22;44308;50.810;0.284;2023-06-04T02:30:15;11.70;99.90
58517;DHT22;44308;50.810;0.284;2023-06-04T02:32:42;11.70;99.90
58517;DHT22;44308;50.810;0.284;2023-06-04T02:35:10;11.70;99.90
58517;DHT22;44308;50.810;0.284;2023-06-04T02:37:36;11.70;99.90
58517;DHT22;44308;50.810;0.284;2023-06-04T02:40:03;11.70;99.90
58517;DHT22;44308;50.810;0.284;2023-06-04T02:42:29;11.70;99.90
58517;DHT22;44308;50.810;0.284;2023-06-04T02:44:55;11.80;99.90
58517;DHT22;44308;50.810;0.284;2023-06-04T02:47:21;11.80;99.90
58517;DHT22;44308;50.810;0.284;2023-06-04T02:49:46;11.70;99.90
58517;DHT22;44308;50.810;0.284;2023-06-04T02:52:12;11.70;99.90
58517;DHT22;44308;50.810;0.284;2023-06-04T02:54:38;11.70;99.90
58517;DHT22;44308;50.810;0.284;2023-06-04T02:57:04;11.70;99.90
58517;DHT22;44308;50.810;0.284;2023-06-04T02:59:33;11.70;99.90
58517;DHT22;44308;50.810;0.284;2023-06-04T03:01:58;11.70;99.90
58517;DHT22;44308;50.810;0.284;2023-06-04T03:04:24;11.70;99.90
58517;DHT22;44308;50.810;0.284;2023-06-04T03:06:50;11.60;99.90
58517;DHT22;44308;50.810;0.284;2023-06-04T03:09:23;11.60;99.90
58517;DHT22;44308;50.810;0.284;2023-06-04T03:11:48;11.60;99.90
58517;DHT22;44308;50.810;0.284;2023-06-04T03:14:14;11.60;99.90
58517;DHT22;44308;50.810;0.284;2023-06-04T03:16:41;11.60;99.90
58517;DHT22;44308;50.810;0.284;2023-06-04T03:19:07;11.60;99.90
58517;DHT22;44308;50.810;0.284;2023-06-04T03:21:34;11.50;99.90
58517;DHT22;44308;50.810;0.284;2023-06-04T03:23:59;11.50;99.90
58517;DHT22;44308;50.810;0.284;2023-06-04T03:26:25;11.50;99.90
58517;DHT22;44308;50.810;0.284;2023-06-04T03:28:52;11.50;99.90
58517;DHT22;44308;50.810;0.284;2023-06-04T03:31:17;11.40;99.90
58517;DHT22;44308;50.810;0.284;2023-06-04T03:33:43;11.40;99.90
58517;DHT22;44308;50.810;0.284;2023-06-04T03:36:09;11.40;99.90
58517;DHT22;44308;50.810;0.284;2023-06-04T03:38:36;11.50;99.90
58517;DHT22;44308;50.810;0.284;2023-06-04T03:41:02;11.50;99.90
58517;DHT22;44308;50.810;0.284;2023-06-04T03:43:27;11.50;99.90
58517;DHT22;44308;50.810;0.284;2023-06-04T03:45:53;11.50;99.90
58517;DHT22;44308;50.810;0.284;2023-06-04T03:48:19;11.60;99.90
58517;DHT22;44308;50.810;0.284;2023-06-04T03:50:44;11.60;99.90
58517;DHT22;44308;50.810;0.284;2023-06-04T03:53:11;11.60;99.90
58517;DHT22;44308;50.810;0.284;2023-06-04T03:55:37;11.50;99.90
58517;DHT22;44308;50.810;0.284;2023-06-04T03:58:03;11.50;99.90
58517;DHT22;44308;50.810;0.284;2023-06-04T04:00:28;11.50;99.90
58517;DHT22;44308;50.810;0.284;2023-06-04T04:02:54;11.60;99.90
58517;DHT22;44308;50.810;0.284;2023-06-04T04:05:22;11.60;99.90
58517;DHT22;44308;50.810;0.284;2023-06-04T04:07:47;11.60;99.90
58517;DHT22;44308;50.810;0.284;2023-06-04T04:10:13;11.60;99.90
58517;DHT22;44308;50.810;0.284;2023-06-04T04:12:39;11.60;99.90
58517;DHT22;44308;50.810;0.284;2023-06-04T04:15:05;11.60;99.90
58517;DHT22;44308;50.810;0.284;2023-06-04T04:17:30;11.60;99.90
58517;DHT22;44308;50.810;0.284;2023-06-04T04:19:57;11.60;99.90
58517;DHT22;44308;50.810;0.284;2023-06-04T04:22:23;11.60;99.90
58517;DHT22;44308;50.810;0.284;2023-06-04T04:24:50;11.60;99.90
58517;DHT22;44308;50.810;0.284;2023-06-04T04:27:15;11.60;99.90
58517;DHT22;44308;50.810;0.284;2023-06-04T04:29:41;11.60;99.90
58517;DHT22;44308;50.810;0.284;2023-06-04T04:32:08;11.60;99.90
58517;DHT22;44308;50.810;0.284;2023-06-04T04:34:37;11.60;99.90
58517;DHT22;44308;50.810;0.284;2023-06-04T04:37:05;11.60;99.90
58517;DHT22;44308;50.810;0.284;2023-06-04T04:39:35;11.60;99.90
58517;DHT22;44308;50.810;0.284;2023-06-04T04:42:03;11.70;99.90
58517;DHT22;44308;50.810;0.284;2023-06-04T04:44:29;11.70;99.90
58517;DHT22;44308;50.810;0.284;2023-06-04T04:46:55;11.80;99.90
58517;DHT22;44308;50.810;0.284;2023-06-04T04:49:20;11.90;99.90
58517;DHT22;44308;50.810;0.284;2023-06-04T04:51:46;11.90;99.90
58517;DHT22;44308;50.810;0.284;2023-06-04T04:54:12;12.00;99.90
58517;DHT22;44308;50.810;0.284;2023-06-04T04:56:38;12.00;99.90
58517;DHT22;44308;50.810;0.284;2023-06-04T04:59:04;12.10;99.90
58517;DHT22;44308;50.810;0.284;2023-06-04T05:01:30;12.20;99.90
58517;DHT22;44308;50.810;0.284;2023-06-04T05:03:56;12.20;99.90
58517;DHT22;44308;50.810;0.284;2023-06-04T05:06:21;12.20;99.90
58517;DHT22;44308;50.810;0.284;2023-06-04T05:08:47;12.30;99.90
58517;DHT22;44308;50.810;0.284;2023-06-04T05:11:13;12.40;99.90
58517;DHT22;44308;50.810;0.284;2023-06-04T05:13:39;12.40;99.90
58517;DHT22;44308;50.810;0.284;2023-06-04T05:16:07;12.50;99.90
58517;DHT22;44308;50.810;0.284;2023-06-04T05:18:33;12.50;99.90
58517;DHT22;44308;50.810;0.284;2023-06-04T05:21:00;12.60;99.90
58517;DHT22;44308;50.810;0.284;2023-06-04T05:23:28;12.60;99.90
58517;DHT22;44308;50.810;0.284;2023-06-04T05:25:55;12.70;99.90
58517;DHT22;44308;50.810;0.284;2023-06-04T05:28:20;12.80;99.90
58517;DHT22;44308;50.810;0.284;2023-06-04T05:30:49;12.80;99.90
58517;DHT22;44308;50.810;0.284;2023-06-04T05:33:15;12.90;99.90
58517;DHT22;44308;50.810;0.284;2023-06-04T05:35:46;12.90;99.90
58517;DHT22;44308;50.810;0.284;2023-06-04T05:38:12;13.00;99.90
58517;DHT22;44308;50.810;0.284;2023-06-04T05:40:43;13.00;99.90
58517;DHT22;44308;50.810;0.284;2023-06-04T05:43:09;13.00;99.90
58517;DHT22;44308;50.810;0.284;2023-06-04T05:45:34;13.00;99.90
58517;DHT22;44308;50.810;0.284;2023-06-04T05:48:00;13.10;99.90
58517;DHT22;44308;50.810;0.284;2023-06-04T05:50:26;13.20;99.90
58517;DHT22;44308;50.810;0.284;2023-06-04T05:52:52;13.20;99.90
58517;DHT22;44308;50.810;0.284;2023-06-04T05:55:18;13.30;99.90
58517;DHT22;44308;50.810;0.284;2023-06-04T05:57:43;13.40;99.90
58517;DHT22;44308;50.810;0.284;2023-06-04T06:00:09;13.50;99.90
58517;DHT22;44308;50.810;0.284;2023-06-04T06:02:36;13.50;99.90
58517;DHT22;44308;50.810;0.284;2023-06-04T06:05:04;13.60;99.90
58517;DHT22;44308;50.810;0.284;2023-06-04T06:07:33;13.70;99.90
58517;DHT22;44308;50.810;0.284;2023-06-04T06:10:02;13.70;99.90
58517;DHT22;44308;50.810;0.284;2023-06-04T06:12:28;13.80;99.90
58517;DHT22;44308;50.810;0.284;2023-06-04T06:14:54;13.90;99.90
58517;DHT22;44308;50.810;0.284;2023-06-04T06:17:19;14.00;99.90
58517;DHT22;44308;50.810;0.284;2023-06-04T06:19:45;14.20;99.90
58517;DHT22;44308;50.810;0.284;2023-06-04T06:22:11;14.60;99.90
58517;DHT22;44308;50.810;0.284;2023-06-04T06:24:39;15.40;99.90
58517;DHT22;44308;50.810;0.284;2023-06-04T06:27:05;16.30;99.90
58517;DHT22;44308;50.810;0.284;2023-06-04T06:29:32;17.20;99.90
58517;DHT22;44308;50.810;0.284;2023-06-04T06:31:58;17.90;99.90
58517;DHT22;44308;50.810;0.284;2023-06-04T06:34:25;18.60;99.90
58517;DHT22;44308;50.810;0.284;2023-06-04T06:36:50;19.20;99.90
58517;DHT22;44308;50.810;0.284;2023-06-04T06:39:17;19.90;99.90
58517;DHT22;44308;50.810;0.284;2023-06-04T06:41:43;20.00;99.90
58517;DHT22;44308;50.810;0.284;2023-06-04T06:44:09;20.40;99.90
58517;DHT22;44308;50.810;0.284;2023-06-04T06:46:34;20.50;99.90
58517;DHT22;44308;50.810;0.284;2023-06-04T06:49:02;20.40;99.90
58517;DHT22;44308;50.810;0.284;2023-06-04T06:51:28;20.90;99.90
58517;DHT22;44308;50.810;0.284;2023-06-04T06:53:53;21.40;99.90
58517;DHT22;44308;50.810;0.284;2023-06-04T06:56:19;21.40;99.90
58517;DHT22;44308;50.810;0.284;2023-06-04T06:58:45;21.60;99.90
58517;DHT22;44308;50.810;0.284;2023-06-04T07:01:11;21.90;99.90
58517;DHT22;44308;50.810;0.284;2023-06-04T07:03:40;22.30;99.90
58517;DHT22;44308;50.810;0.284;2023-06-04T07:06:06;22.30;99.90
58517;DHT22;44308;50.810;0.284;2023-06-04T07:08:32;22.50;99.90
58517;DHT22;44308;50.810;0.284;2023-06-04T07:10:59;22.00;99.90
58517;DHT22;44308;50.810;0.284;2023-06-04T07:13:25;22.60;99.90
58517;DHT22;44308;50.810;0.284;2023-06-04T07:15:51;22.70;99.90
58517;DHT22;44308;50.810;0.284;2023-06-04T07:18:16;22.70;99.90
58517;DHT22;44308;50.810;0.284;2023-06-04T07:20:42;22.60;99.90
58517;DHT22;44308;50.810;0.284;2023-06-04T07:23:08;23.20;99.90
58517;DHT22;44308;50.810;0.284;2023-06-04T07:25:34;23.00;99.90
58517;DHT22;44308;50.810;0.284;2023-06-04T07:28:00;23.60;99.90
58517;DHT22;44308;50.810;0.284;2023-06-04T07:30:30;23.70;99.90
58517;DHT22;44308;50.810;0.284;2023-06-04T07:32:58;23.20;99.90
58517;DHT22;44308;50.810;0.284;2023-06-04T07:35:24;23.60;99.90
58517;DHT22;44308;50.810;0.284;2023-06-04T07:37:50;24.00;99.90
58517;DHT22;44308;50.810;0.284;2023-06-04T07:40:16;24.80;99.90
58517;DHT22;44308;50.810;0.284;2023-06-04T07:42:42;25.10;99.90
58517;DHT22;44308;50.810;0.284;2023-06-04T07:45:09;25.30;99.90
58517;DHT22;44308;50.810;0.284;2023-06-04T07:47:38;25.60;99.90
58517;DHT22;44308;50.810;0.284;2023-06-04T07:50:04;25.30;99.90
58517;DHT22;44308;50.810;0.284;2023-06-04T07:52:31;24.60;99.90
58517;DHT22;44308;50.810;0.284;2023-06-04T07:54:57;24.80;99.90
58517;DHT22;44308;50.810;0.284;2023-06-04T07:57:22;24.30;99.90
58517;DHT22;44308;50.810;0.284;2023-06-04T07:59:48;24.60;99.90
58517;DHT22;44308;50.810;0.284;2023-06-04T08:02:14;25.10;99.90
58517;DHT22;44308;50.810;0.284;2023-06-04T08:04:40;25.40;99.90
58517;DHT22;44308;50.810;0.284;2023-06-04T08:07:06;25.70;99.90
58517;DHT22;44308;50.810;0.284;2023-06-04T08:09:32;25.70;99.90
58517;DHT22;44308;50.810;0.284;2023-06-04T08:11:57;25.90;99.90
58517;DHT22;44308;50.810;0.284;2023-06-04T08:14:23;25.80;99.90
58517;DHT22;44308;50.810;0.284;2023-06-04T08:16:52;25.10;99.90
58517;DHT22;44308;50.810;0.284;2023-06-04T08:19:18;25.10;99.90
58517;DHT22;44308;50.810;0.284;2023-06-04T08:21:44;25.30;99.90
58517;DHT22;44308;50.810;0.284;2023-06-04T08:24:11;26.00;99.90
58517;DHT22;44308;50.810;0.284;2023-06-04T08:26:37;26.30;99.90
58517;DHT22;44308;50.810;0.284;2023-06-04T08:29:03;26.30;99.90
58517;DHT22;44308;50.810;0.284;2023-06-04T08:31:32;26.60;99.90
58517;DHT22;44308;50.810;0.284;2023-06-04T08:33:58;26.90;99.90
58517;DHT22;44308;50.810;0.284;2023-06-04T08:36:24;26.90;99.90
58517;DHT22;44308;50.810;0.284;2023-06-04T08:38:50;26.50;99.90
58517;DHT22;44308;50.810;0.284;2023-06-04T08:41:28;26.20;99.90
58517;DHT22;44308;50.810;0.284;2023-06-04T08:43:57;26.10;99.90
58517;DHT22;44308;50.810;0.284;2023-06-04T08:46:23;26.20;99.90
58517;DHT22;44308;50.810;0.284;2023-06-04T08:48:52;26.00;99.90
58517;DHT22;44308;50.810;0.284;2023-06-04T08:51:19;26.10;99.90
58517;DHT22;44308;50.810;0.284;2023-06-04T08:53:45;26.60;99.90
58517;DHT22;44308;50.810;0.284;2023-06-04T08:56:15;26.70;99.90
58517;DHT22;44308;50.810;0.284;2023-06-04T08:58:43;27.10;99.90
58517;DHT22;44308;50.810;0.284;2023-06-04T09:01:09;26.90;99.90
58517;DHT22;44308;50.810;0.284;2023-06-04T09:03:36;26.90;99.90
58517;DHT22;44308;50.810;0.284;2023-06-04T09:06:03;26.90;99.90
58517;DHT22;44308;50.810;0.284;2023-06-04T09:08:33;26.80;99.90
58517;DHT22;44308;50.810;0.284;2023-06-04T09:11:02;27.00;99.90
58517;DHT22;44308;50.810;0.284;2023-06-04T09:13:31;27.60;99.90
58517;DHT22;44308;50.810;0.284;2023-06-04T09:16:02;27.50;99.90
58517;DHT22;44308;50.810;0.284;2023-06-04T09:18:29;27.00;99.90
58517;DHT22;44308;50.810;0.284;2023-06-04T09:21:06;26.50;99.90
58517;DHT22;44308;50.810;0.284;2023-06-04T09:26:09;26.50;99.90
58517;DHT22;44308;50.810;0.284;2023-06-04T09:28:39;26.60;99.90
58517;DHT22;44308;50.810;0.284;2023-06-04T09:31:16;26.60;99.90
58517;DHT22;44308;50.810;0.284;2023-06-04T09:33:46;26.90;99.90
58517;DHT22;44308;50.810;0.284;2023-06-04T09:36:12;26.80;99.90
58517;DHT22;44308;50.810;0.284;2023-06-04T09:38:39;27.20;99.90
58517;DHT22;44308;50.810;0.284;2023-06-04T09:41:13;27.40;99.90
58517;DHT22;44308;50.810;0.284;2023-06-04T09:43:40;27.60;99.90
58517;DHT22;44308;50.810;0.284;2023-06-04T09:46:16;26.90;99.90
58517;DHT22;44308;50.810;0.284;2023-06-04T09:48:43;27.50;99.90
58517;DHT22;44308;50.810;0.284;2023-06-04T09:51:12;27.40;99.90
58517;DHT22;44308;50.810;0.284;2023-06-04T09:53:41;27.50;99.90
58517;DHT22;44308;50.810;0.284;2023-06-04T09:56:07;27.60;99.90
58517;DHT22;44308;50.810;0.284;2023-06-04T09:58:38;27.50;99.90
58517;DHT22;44308;50.810;0.284;2023-06-04T10:01:05;27.40;99.90
58517;DHT22;44308;50.810;0.284;2023-06-04T10:03:37;27.60;99.90
58517;DHT22;44308;50.810;0.284;2023-06-04T10:06:06;27.50;99.90
58517;DHT22;44308;50.810;0.284;2023-06-04T10:08:33;27.70;99.90
58517;DHT22;44308;50.810;0.284;2023-06-04T10:11:01;27.70;99.90
58517;DHT22;44308;50.810;0.284;2023-06-04T10:13:35;27.80;99.90
58517;DHT22;44308;50.810;0.284;2023-06-04T10:16:03;28.20;99.90
58517;DHT22;44308;50.810;0.284;2023-06-04T10:18:31;27.40;99.90
58517;DHT22;44308;50.810;0.284;2023-06-04T10:20:57;27.40;99.90
58517;DHT22;44308;50.810;0.284;2023-06-04T10:23:24;27.40;99.90
58517;DHT22;44308;50.810;0.284;2023-06-04T10:25:50;27.30;99.90
58517;DHT22;44308;50.810;0.284;2023-06-04T10:28:19;27.50;99.90
58517;DHT22;44308;50.810;0.284;2023-06-04T10:30:49;27.60;99.90
58517;DHT22;44308;50.810;0.284;2023-06-04T10:33:18;27.60;99.90
58517;DHT22;44308;50.810;0.284;2023-06-04T10:35:45;27.00;99.90
58517;DHT22;44308;50.810;0.284;2023-06-04T10:38:12;26.80;99.90
58517;DHT22;44308;50.810;0.284;2023-06-04T10:40:46;27.00;99.90
58517;DHT22;44308;50.810;0.284;2023-06-04T10:43:14;27.40;99.90
58517;DHT22;44308;50.810;0.284;2023-06-04T10:45:41;27.50;99.90
58517;DHT22;44308;50.810;0.284;2023-06-04T10:48:09;27.50;99.90
58517;DHT22;44308;50.810;0.284;2023-06-04T10:50:47;27.40;99.90
58517;DHT22;44308;50.810;0.284;2023-06-04T10:53:13;27.40;99.90
58517;DHT22;44308;50.810;0.284;2023-06-04T10:55:46;27.60;99.90
58517;DHT22;44308;50.810;0.284;2023-06-04T10:58:12;27.30;99.90
58517;DHT22;44308;50.810;0.284;2023-06-04T11:00:38;27.00;99.90
58517;DHT22;44308;50.810;0.284;2023-06-04T11:03:06;26.90;99.90
58517;DHT22;44308;50.810;0.284;2023-06-04T11:05:40;27.30;99.90
58517;DHT22;44308;50.810;0.284;2023-06-04T11:08:08;27.40;99.90
58517;DHT22;44308;50.810;0.284;2023-06-04T11:10:45;26.80;99.90
58517;DHT22;44308;50.810;0.284;2023-06-04T11:13:11;26.70;99.90
58517;DHT22;44308;50.810;0.284;2023-06-04T11:15:46;27.00;99.90
58517;DHT22;44308;50.810;0.284;2023-06-04T11:18:18;27.10;99.90
58517;DHT22;44308;50.810;0.284;2023-06-04T11:21:04;27.20;99.90
58517;DHT22;44308;50.810;0.284;2023-06-04T11:23:30;26.80;99.90
58517;DHT22;44308;50.810;0.284;2023-06-04T11:25:56;26.60;99.90
58517;DHT22;44308;50.810;0.284;2023-06-04T11:28:22;26.80;99.90
58517;DHT22;44308;50.810;0.284;2023-06-04T11:31:01;26.90;99.90
58517;DHT22;44308;50.810;0.284;2023-06-04T11:33:29;26.90;99.90
58517;DHT22;44308;50.810;0.284;2023-06-04T11:35:54;27.10;99.90
58517;DHT22;44308;50.810;0.284;2023-06-04T11:38:20;27.10;99.90
58517;DHT22;44308;50.810;0.284;2023-06-04T11:40:59;27.00;99.90
58517;DHT22;44308;50.810;0.284;2023-06-04T11:43:27;26.50;99.90
58517;DHT22;44308;50.810;0.284;2023-06-04T11:45:53;26.20;99.90
58517;DHT22;44308;50.810;0.284;2023-06-04T11:48:20;26.70;99.90
58517;DHT22;44308;50.810;0.284;2023-06-04T11:50:46;27.00;99.90
58517;DHT22;44308;50.810;0.284;2023-06-04T11:53:11;26.90;99.90
58517;DHT22;44308;50.810;0.284;2023-06-04T11:55:39;27.00;99.90
58517;DHT22;44308;50.810;0.284;2023-06-04T11:58:05;26.90;99.90
58517;DHT22;44308;50.810;0.284;2023-06-04T12:00:31;26.90;99.90
58517;DHT22;44308;50.810;0.284;2023-06-04T12:02:57;26.70;99.90
58517;DHT22;44308;50.810;0.284;2023-06-04T12:05:29;26.60;99.90
58517;DHT22;44308;50.810;0.284;2023-06-04T12:08:09;26.60;99.90
58517;DHT22;44308;50.810;0.284;2023-06-04T12:10:43;27.00;99.90
58517;DHT22;44308;50.810;0.284;2023-06-04T12:13:10;26.50;99.90
58517;DHT22;44308;50.810;0.284;2023-06-04T12:15:36;26.50;99.90
58517;DHT22;44308;50.810;0.284;2023-06-04T12:18:01;26.30;99.90
58517;DHT22;44308;50.810;0.284;2023-06-04T12:20:40;26.50;99.90
58517;DHT22;44308;50.810;0.284;2023-06-04T12:23:20;26.50;99.90
58517;DHT22;44308;50.810;0.284;2023-06-04T12:25:50;26.40;99.90
58517;DHT22;44308;50.810;0.284;2023-06-04T12:28:19;26.10;99.90
58517;DHT22;44308;50.810;0.284;2023-06-04T12:30:45;26.50;99.90
58517;DHT22;44308;50.810;0.284;2023-06-04T12:33:11;26.70;99.90
58517;DHT22;44308;50.810;0.284;2023-06-04T12:35:37;27.30;99.90
58517;DHT22;44308;50.810;0.284;2023-06-04T12:38:03;27.60;99.90
58517;DHT22;44308;50.810;0.284;2023-06-04T12:40:30;28.00;99.90
58517;DHT22;44308;50.810;0.284;2023-06-04T12:42:56;27.90;99.90
58517;DHT22;44308;50.810;0.284;2023-06-04T12:45:21;27.70;99.90
58517;DHT22;44308;50.810;0.284;2023-06-04T12:47:47;27.30;99.90
58517;DHT22;44308;50.810;0.284;2023-06-04T12:50:15;27.60;99.90
58517;DHT22;44308;50.810;0.284;2023-06-04T12:52:41;27.10;99.90
58517;DHT22;44308;50.810;0.284;2023-06-04T12:55:07;27.10;99.90
58517;DHT22;44308;50.810;0.284;2023-06-04T12:57:33;26.90;99.90
58517;DHT22;44308;50.810;0.284;2023-06-04T12:59:58;27.00;99.90
58517;DHT22;44308;50.810;0.284;2023-06-04T13:02:24;27.10;99.90
58517;DHT22;44308;50.810;0.284;2023-06-04T13:04:50;27.30;99.90
58517;DHT22;44308;50.810;0.284;2023-06-04T13:07:20;27.30;99.90
58517;DHT22;44308;50.810;0.284;2023-06-04T13:09:46;27.10;99.90
58517;DHT22;44308;50.810;0.284;2023-06-04T13:12:12;26.80;99.90
58517;DHT22;44308;50.810;0.284;2023-06-04T13:14:38;26.90;99.90
58517;DHT22;44308;50.810;0.284;2023-06-04T13:17:04;26.30;99.90
58517;DHT22;44308;50.810;0.284;2023-06-04T13:19:30;26.60;99.90
58517;DHT22;44308;50.810;0.284;2023-06-04T13:21:56;26.60;99.90
58517;DHT22;44308;50.810;0.284;2023-06-04T13:24:22;26.30;99.90
58517;DHT22;44308;50.810;0.284;2023-06-04T13:26:48;26.50;99.90
58517;DHT22;44308;50.810;0.284;2023-06-04T13:29:14;26.70;99.90
58517;DHT22;44308;50.810;0.284;2023-06-04T13:31:41;26.80;99.90
58517;DHT22;44308;50.810;0.284;2023-06-04T13:34:07;26.80;99.90
58517;DHT22;44308;50.810;0.284;2023-06-04T13:36:33;26.60;99.90
58517;DHT22;44308;50.810;0.284;2023-06-04T13:38:58;26.40;99.90
58517;DHT22;44308;50.810;0.284;2023-06-04T13:41:24;26.50;99.90
58517;DHT22;44308;50.810;0.284;2023-06-04T13:43:50;26.50;99.90
58517;DHT22;44308;50.810;0.284;2023-06-04T13:46:16;26.60;99.90
58517;DHT22;44308;50.810;0.284;2023-06-04T13:48:45;26.40;99.90
58517;DHT22;44308;50.810;0.284;2023-06-04T13:51:11;26.10;99.90
58517;DHT22;44308;50.810;0.284;2023-06-04T13:53:39;25.80;99.90
58517;DHT22;44308;50.810;0.284;2023-06-04T13:56:05;25.90;99.90
58517;DHT22;44308;50.810;0.284;2023-06-04T13:58:31;26.10;99.90
58517;DHT22;44308;50.810;0.284;2023-06-04T14:00:57;25.90;99.90
58517;DHT22;44308;50.810;0.284;2023-06-04T14:03:22;25.50;99.90
58517;DHT22;44308;50.810;0.284;2023-06-04T14:05:48;25.90;99.90
58517;DHT22;44308;50.810;0.284;2023-06-04T14:08:14;25.80;99.90
58517;DHT22;44308;50.810;0.284;2023-06-04T14:10:40;25.90;99.90
58517;DHT22;44308;50.810;0.284;2023-06-04T14:13:09;26.00;99.90
58517;DHT22;44308;50.810;0.284;2023-06-04T14:15:34;26.10;99.90
58517;DHT22;44308;50.810;0.284;2023-06-04T14:18:00;26.10;99.90
58517;DHT22;44308;50.810;0.284;2023-06-04T14:20:27;26.10;99.90
58517;DHT22;44308;50.810;0.284;2023-06-04T14:22:53;26.20;99.90
58517;DHT22;44308;50.810;0.284;2023-06-04T14:25:18;26.10;99.90
58517;DHT22;44308;50.810;0.284;2023-06-04T14:27:44;26.00;99.90
58517;DHT22;44308;50.810;0.284;2023-06-04T14:30:10;25.90;99.90
58517;DHT22;44308;50.810;0.284;2023-06-04T14:32:36;25.70;99.90
58517;DHT22;44308;50.810;0.284;2023-06-04T14:35:01;25.60;99.90
58517;DHT22;44308;50.810;0.284;2023-06-04T14:37:27;25.70;99.90
58517;DHT22;44308;50.810;0.284;2023-06-04T14:39:53;26.00;99.90
58517;DHT22;44308;50.810;0.284;2023-06-04T14:42:18;25.90;99.90
58517;DHT22;44308;50.810;0.284;2023-06-04T14:44:45;25.80;99.90
58517;DHT22;44308;50.810;0.284;2023-06-04T14:47:11;25.70;99.90
58517;DHT22;44308;50.810;0.284;2023-06-04T14:49:37;25.60;99.90
58517;DHT22;44308;50.810;0.284;2023-06-04T14:52:05;25.10;99.90
58517;DHT22;44308;50.810;0.284;2023-06-04T14:54:32;25.10;99.90
58517;DHT22;44308;50.810;0.284;2023-06-04T14:56:58;25.00;99.90
58517;DHT22;44308;50.810;0.284;2023-06-04T14:59:23;25.30;99.90
58517;DHT22;44308;50.810;0.284;2023-06-04T15:01:49;25.30;99.90
58517;DHT22;44308;50.810;0.284;2023-06-04T15:04:15;25.40;99.90
58517;DHT22;44308;50.810;0.284;2023-06-04T15:06:41;25.70;99.90
58517;DHT22;44308;50.810;0.284;2023-06-04T15:09:06;25.80;99.90
58517;DHT22;44308;50.810;0.284;2023-06-04T15:11:32;26.10;99.90
58517;DHT22;44308;50.810;0.284;2023-06-04T15:13:58;25.70;99.90
58517;DHT22;44308;50.810;0.284;2023-06-04T15:16:23;25.20;99.90
58517;DHT22;44308;50.810;0.284;2023-06-04T15:18:52;25.30;99.90
58517;DHT22;44308;50.810;0.284;2023-06-04T15:21:20;24.90;99.90
58517;DHT22;44308;50.810;0.284;2023-06-04T15:23:54;25.00;99.90
58517;DHT22;44308;50.810;0.284;2023-06-04T15:26:20;25.10;99.90
58517;DHT22;44308;50.810;0.284;2023-06-04T15:28:53;25.10;99.90
58517;DHT22;44308;50.810;0.284;2023-06-04T15:31:19;25.20;99.90
58517;DHT22;44308;50.810;0.284;2023-06-04T15:33:45;25.40;99.90
58517;DHT22;44308;50.810;0.284;2023-06-04T15:36:11;25.00;99.90